Time;durP1;ratioP1;P1;durP2;ratioP2;P2;SDS_P1;SDS_P2;PMS_P1;PMS_P2;Temp;Humidity;BMP_temperature;BMP_pressure;BME280_temperature;BME280_humidity;BME280_pressure;Samples;Min_cycle;Max_cycle;Signal;HPM_P1;HPM_P2
2022/08/18 00:02:26;;;;;;;20.43;10.10;;;;;;;20.97;80.61;99855.25;125029;1099;104236;-77
2022/08/18 00:04:59;;;;;;;19.57;10.30;;;;;;;20.99;80.32;99865.89;124250;1099;101983;-77
2022/08/18 00:07:33;;;;;;;19.52;10.50;;;;;;;20.97;81.13;99862.35;124240;1099;104637;-77
2022/08/18 00:10:05;;;;;;;17.60;10.30;;;;;;;20.93;80.76;99871.33;124271;1099;104245;-77
2022/08/18 00:12:42;;;;;;;18.03;9.13;;;;;;;20.91;80.11;99859.78;124256;1099;102838;-77
2022/08/18 00:15:15;;;;;;;18.20;9.87;;;;;;;20.89;81.84;99861.61;124173;1102;107867;-78
2022/08/18 00:17:45;;;;;;;;;;;;;;;20.85;81.21;99863.45;124291;1099;104185;-77
2022/08/18 00:20:20;;;;;;;19.03;10.60;;;;;;;20.83;80.86;99857.25;124743;1099;104189;-77
2022/08/18 00:22:52;;;;;;;20.13;10.40;;;;;;;20.82;81.63;99859.05;124759;1099;104232;-77
2022/08/18 00:25:24;;;;;;;19.13;10.50;;;;;;;20.82;81.80;99861.71;124299;1102;101949;-77
2022/08/18 00:27:55;;;;;;;16.80;10.07;;;;;;;20.80;81.78;99860.87;124742;1099;102267;-77
2022/08/18 00:30:27;;;;;;;18.50;10.23;;;;;;;20.78;81.74;99862.66;124735;1099;104194;-77
2022/08/18 00:33:00;;;;;;;19.70;10.97;;;;;;;20.78;82.14;99865.32;124677;1099;104335;-77
2022/08/18 00:35:34;;;;;;;20.83;11.10;;;;;;;20.79;82.18;99851.09;124801;1099;104178;-77
2022/08/18 00:38:08;;;;;;;19.23;11.03;;;;;;;20.77;82.81;99854.69;124280;1102;104194;-77
2022/08/18 00:40:42;;;;;;;18.57;10.50;;;;;;;20.75;81.91;99854.70;124744;1099;103581;-77
2022/08/18 00:43:20;;;;;;;18.00;10.27;;;;;;;20.75;82.71;99846.70;124727;1099;104243;-77
2022/08/18 00:45:51;;;;;;;16.57;9.90;;;;;;;20.75;81.93;99851.17;124778;1098;109880;-77
2022/08/18 00:48:23;;;;;;;17.43;9.93;;;;;;;20.67;82.94;99845.97;124216;1099;104188;-77
2022/08/18 00:50:57;;;;;;;23.60;11.30;;;;;;;20.72;82.15;99856.55;124757;1099;104297;-77
2022/08/18 00:53:34;;;;;;;20.00;10.83;;;;;;;20.69;82.15;99862.80;124697;1099;104335;-78
2022/08/18 00:56:10;;;;;;;19.10;10.77;;;;;;;20.71;82.67;99855.69;124722;1099;103403;-78
2022/08/18 00:58:47;;;;;;;17.90;10.60;;;;;;;20.70;82.41;99848.58;124740;1099;104179;-77
2022/08/18 01:01:23;;;;;;;18.03;10.60;;;;;;;20.70;82.97;99853.91;124715;1099;104214;-76
2022/08/18 01:04:00;;;;;;;19.73;10.70;;;;;;;20.69;81.89;99852.14;124760;1099;102784;-78
2022/08/18 01:06:38;;;;;;;18.73;10.57;;;;;;;20.70;82.47;99848.58;124711;1099;107595;-76
2022/08/18 01:09:10;;;;;;;19.73;10.80;;;;;;;20.69;82.90;99846.81;124763;1099;104261;-76
2022/08/18 01:11:42;;;;;;;17.63;10.63;;;;;;;20.71;83.03;99853.02;124748;1099;104261;-76
2022/08/18 01:14:17;;;;;;;19.60;10.47;;;;;;;20.71;83.23;99853.02;124722;1099;102814;-77
2022/08/18 01:22:46;;;;;;;20.03;10.77;;;;;;;20.65;82.92;99840.66;124839;1099;101845;-76
2022/08/18 01:28:23;;;;;;;17.73;10.20;;;;;;;20.70;83.44;99845.05;124220;1102;104232;-76
2022/08/18 01:30:57;;;;;;;19.03;11.10;;;;;;;20.71;82.77;99841.45;124638;1099;104621;-76
2022/08/18 01:33:35;;;;;;;18.70;11.10;;;;;;;20.70;83.59;99848.58;124709;1099;104278;-77
2022/08/18 01:36:15;;;;;;;19.90;11.00;;;;;;;20.70;83.31;99837.05;124639;1099;102184;-77
2022/08/18 01:38:49;;;;;;;18.60;10.53;;;;;;;20.70;83.40;99842.38;124770;1099;102928;-75
2022/08/18 01:41:23;;;;;;;21.07;11.20;;;;;;;20.69;83.77;99844.14;124781;1099;104149;-77
2022/08/18 01:43:53;;;;;;;;;;;;;;;20.68;84.50;99853.06;124794;1099;102788;-77
2022/08/18 01:46:25;;;;;;;20.73;11.07;;;;;;;20.68;83.78;99852.16;124665;1099;104175;-77
2022/08/18 01:48:57;;;;;;;19.93;10.97;;;;;;;20.68;83.74;99855.73;124271;1098;104176;-77
2022/08/18 01:51:31;;;;;;;20.10;11.37;;;;;;;20.66;84.52;99857.52;124232;1099;102174;-77
2022/08/18 01:54:04;;;;;;;21.10;10.43;;;;;;;20.67;83.62;99850.42;124783;1099;101936;-77
2022/08/18 01:56:36;;;;;;;18.63;10.70;;;;;;;20.65;84.02;99856.65;124706;1099;104160;-76
2022/08/18 01:59:13;;;;;;;19.63;11.03;;;;;;;20.68;84.17;99858.40;124649;1099;104411;-77
2022/08/18 02:01:46;;;;;;;21.57;11.20;;;;;;;20.68;84.18;99853.06;124354;1102;104258;-76
2022/08/18 02:04:23;;;;;;;20.35;12.30;;;;;;;20.68;84.34;99849.50;124703;1099;104236;-77
2022/08/18 02:06:54;;;;;;;20.40;11.17;;;;;;;20.68;83.97;99853.06;124686;1099;104232;-77
2022/08/18 02:09:26;;;;;;;20.43;11.53;;;;;;;20.67;85.25;99845.97;124668;1099;104209;-77
2022/08/18 02:11:58;;;;;;;19.35;11.35;;;;;;;20.66;85.09;99852.19;124689;1098;104326;-76
2022/08/18 02:14:31;;;;;;;20.83;11.57;;;;;;;20.68;85.21;99849.50;124730;1099;102836;-76
2022/08/18 02:17:06;;;;;;;21.33;11.67;;;;;;;20.67;84.45;99843.30;124748;1099;104235;-76
2022/08/18 02:19:39;;;;;;;20.30;11.77;;;;;;;20.64;84.01;99844.22;124734;1099;104159;-76
2022/08/18 02:22:14;;;;;;;20.80;11.33;;;;;;;20.62;84.74;99848.67;124754;1099;104271;-77
2022/08/18 02:24:46;;;;;;;18.37;11.23;;;;;;;20.60;85.23;99844.26;124613;1099;104198;-77
2022/08/18 02:27:19;;;;;;;21.90;12.00;;;;;;;20.61;85.05;99852.23;124290;1102;104224;-78
2022/08/18 02:29:50;;;;;;;18.53;10.73;;;;;;;20.56;85.68;99839.90;124678;1098;102817;-77
2022/08/18 02:32:22;;;;;;;26.43;12.27;;;;;;;20.61;85.76;99849.56;125985;1098;104219;-77
2022/08/18 02:34:53;;;;;;;21.07;12.10;;;;;;;20.63;86.27;99852.20;124764;1099;104252;-77
2022/08/18 02:37:24;;;;;;;21.43;11.63;;;;;;;20.63;85.92;99862.87;124698;1099;104408;-77
2022/08/18 02:39:57;;;;;;;21.73;11.77;;;;;;;20.64;84.83;99864.64;124732;1099;104185;-77
2022/08/18 02:42:30;;;;;;;22.37;11.80;;;;;;;20.65;85.20;99869.11;124733;1098;104159;-76
2022/08/18 02:45:02;;;;;;;22.10;11.60;;;;;;;20.66;85.95;99862.85;124732;1098;104169;-78
2022/08/18 02:47:34;;;;;;;21.13;11.83;;;;;;;20.67;85.91;99864.63;124741;1099;104190;-76
2022/08/18 02:50:06;;;;;;;20.80;11.20;;;;;;;20.68;85.43;99873.48;124709;1099;104275;-77
2022/08/18 02:52:38;;;;;;;21.60;11.70;;;;;;;20.66;86.20;99873.52;124714;1099;104160;-76
2022/08/18 02:55:11;;;;;;;19.93;11.43;;;;;;;20.64;86.63;99873.54;124277;1100;104321;-77
2022/08/18 02:57:46;;;;;;;24.57;12.07;;;;;;;20.64;85.95;99880.63;124692;1099;104268;-77
2022/08/18 03:00:19;;;;;;;22.23;11.87;;;;;;;20.63;87.17;99874.43;124721;1098;102762;-77
2022/08/18 03:02:50;;;;;;;;;;;;;;;20.63;87.01;99874.43;124264;1100;102797;-77
2022/08/18 03:05:21;;;;;;;20.33;11.63;;;;;;;20.65;87.03;99869.98;124779;1098;102855;-77
2022/08/18 03:07:54;;;;;;;18.97;11.40;;;;;;;20.66;85.99;99873.52;124651;1099;104278;-77
2022/08/18 03:10:25;;;;;;;21.07;12.10;;;;;;;20.67;87.18;99877.08;124719;1098;102912;-77
2022/08/18 03:12:57;;;;;;;20.27;12.43;;;;;;;20.67;87.15;99879.75;124733;1099;104255;-77
2022/08/18 03:15:28;;;;;;;21.73;12.70;;;;;;;20.67;86.88;99879.75;124657;1099;104162;-77
2022/08/18 03:18:00;;;;;;;25.67;13.20;;;;;;;20.69;87.62;99877.92;124372;1099;104089;-76
2022/08/18 03:20:32;;;;;;;20.27;12.30;;;;;;;20.68;87.31;99884.16;124763;1099;104217;-77
2022/08/18 03:23:07;;;;;;;20.57;12.23;;;;;;;20.70;87.53;99887.70;124733;1099;102197;-78
2022/08/18 03:25:43;;;;;;;20.80;12.27;;;;;;;20.73;86.78;99890.31;124736;1099;102215;-77
2022/08/18 03:28:16;;;;;;;25.00;12.43;;;;;;;20.74;87.11;99890.30;124702;1099;104586;-77
2022/08/18 03:30:47;;;;;;;20.03;12.67;;;;;;;20.76;87.74;99887.60;124708;1099;104519;-77
2022/08/18 03:33:19;;;;;;;20.60;12.23;;;;;;;20.77;87.45;99898.24;124632;1099;104188;-77
2022/08/18 03:35:53;;;;;;;22.43;12.77;;;;;;;20.78;88.26;99891.98;124709;1099;104261;-78
2022/08/18 03:38:24;;;;;;;21.73;12.83;;;;;;;20.80;87.39;99899.95;124666;1099;104275;-77
2022/08/18 03:40:56;;;;;;;21.30;13.20;;;;;;;20.82;87.45;99900.84;124689;1098;104229;-77
2022/08/18 03:43:30;;;;;;;22.07;12.87;;;;;;;20.84;87.81;99899.02;124802;1099;103382;-77
2022/08/18 03:46:05;;;;;;;22.63;13.97;;;;;;;20.85;87.65;99897.22;124674;1099;102372;-77
2022/08/18 03:48:38;;;;;;;26.33;15.17;;;;;;;20.87;88.05;99898.97;124673;1099;104229;-77
2022/08/18 03:51:13;;;;;;;23.98;14.28;;;;;;;20.89;87.92;99893.61;124582;1099;104214;-77
2022/08/18 03:53:47;;;;;;;24.30;14.47;;;;;;;20.89;88.41;99896.27;124224;1099;104213;-77
2022/08/18 03:56:22;;;;;;;25.50;15.80;;;;;;;20.90;87.85;99900.72;124264;1099;104156;-77
2022/08/18 03:58:56;;;;;;;24.37;15.57;;;;;;;20.91;88.93;99897.13;124240;1099;103598;-77
2022/08/18 04:01:30;;;;;;;25.33;15.80;;;;;;;20.93;88.43;99895.33;124324;1099;104235;-78
2022/08/18 04:04:04;;;;;;;27.13;15.90;;;;;;;20.94;88.39;99907.73;124305;1099;104213;-78
2022/08/18 04:06:38;;;;;;;27.37;15.53;;;;;;;20.94;88.18;99900.64;124359;1099;104592;-79
2022/08/18 04:09:12;;;;;;;25.47;16.20;;;;;;;20.97;87.76;99913.02;124293;1099;102768;-78
2022/08/18 04:11:46;;;;;;;26.67;16.20;;;;;;;20.98;89.09;99909.46;124264;1099;104268;-78
2022/08/18 04:14:18;;;;;;;;;;;;;;;21.00;88.21;99912.97;124356;1099;104262;-78
2022/08/18 04:16:49;;;;;;;26.30;16.70;;;;;;;21.01;88.41;99914.74;124337;1099;104173;-78
2022/08/18 04:19:21;;;;;;;27.80;17.25;;;;;;;21.03;88.19;99912.92;124242;1102;104091;-78
2022/08/18 04:21:56;;;;;;;27.37;17.33;;;;;;;21.05;88.12;99918.23;124301;1099;104274;-79
2022/08/18 04:24:30;;;;;;;30.30;18.03;;;;;;;21.07;88.62;99919.98;125011;1099;102134;-78
2022/08/18 04:27:03;;;;;;;27.50;17.45;;;;;;;21.07;89.30;99922.64;124253;1099;102797;-78
2022/08/18 04:29:33;;;;;;;;;;;;;;;21.08;88.30;99912.84;125028;1099;104268;-79
2022/08/18 04:32:05;;;;;;;28.07;17.80;;;;;;;21.12;88.59;99915.44;124962;1100;104223;-78
2022/08/18 04:34:37;;;;;;;28.20;17.07;;;;;;;21.16;88.67;99917.16;125346;1099;102134;-79
2022/08/18 04:37:09;;;;;;;28.77;18.57;;;;;;;21.21;89.32;99916.17;125643;1098;104181;-79
2022/08/18 04:39:41;;;;;;;27.90;17.67;;;;;;;21.24;88.62;99911.69;124734;1099;102788;-79
2022/08/18 04:42:13;;;;;;;29.23;18.80;;;;;;;21.29;89.40;99923.16;125619;1099;104260;-78
2022/08/18 04:44:45;;;;;;;30.57;18.53;;;;;;;21.31;89.06;99915.98;124828;1099;104237;-80
2022/08/18 04:47:19;;;;;;;26.43;17.23;;;;;;;21.36;88.86;99921.25;124780;1099;104262;-79
2022/08/18 04:49:50;;;;;;;28.80;18.00;;;;;;;21.43;89.07;99919.38;124321;1099;102709;-79
2022/08/18 04:55:18;;;;;;;33.50;17.90;;;;;;;21.52;89.35;99914.77;125107;1099;105022;-80
2022/08/18 04:57:50;;;;;;;32.40;18.80;;;;;;;21.59;88.77;99919.99;124279;1102;102797;-80
2022/08/18 05:00:23;;;;;;;31.07;19.60;;;;;;;21.64;88.91;99924.31;124285;1099;104232;-79
2022/08/18 05:02:56;;;;;;;35.93;21.10;;;;;;;21.64;89.85;99918.98;124965;1099;104157;-77
2022/08/18 05:05:27;;;;;;;31.03;19.77;;;;;;;21.66;88.71;99918.95;124335;1099;104226;-77
2022/08/18 05:08:06;;;;;;;34.50;20.07;;;;;;;21.68;89.51;99925.16;124248;1099;103601;-76
2022/08/18 05:10:41;;;;;;;34.10;20.47;;;;;;;21.71;88.49;99925.10;124210;1099;102787;-77
2022/08/18 05:13:17;;;;;;;32.70;21.25;;;;;;;21.72;89.12;99921.50;124343;1099;102251;-77
2022/08/18 05:15:55;;;;;;;35.60;21.90;;;;;;;21.76;89.03;99927.69;124325;1099;104162;-77
2022/08/18 05:18:29;;;;;;;34.43;20.43;;;;;;;21.81;88.68;99918.66;124261;1099;104192;-77
2022/08/18 05:21:00;;;;;;;35.05;21.05;;;;;;;21.86;88.97;99922.13;124284;1098;102906;-78
2022/08/18 05:23:36;;;;;;;35.93;22.20;;;;;;;21.93;88.52;99924.69;124294;1099;104178;-78
2022/08/18 05:26:10;;;;;;;34.50;22.67;;;;;;;22.00;88.80;99926.30;125011;1099;102375;-78
2022/08/18 05:28:50;;;;;;;34.83;22.43;;;;;;;22.04;88.68;99919.99;124968;1099;104185;-77
2022/08/18 05:31:25;;;;;;;36.10;22.53;;;;;;;22.10;89.20;99929.69;125071;1099;104172;-77
2022/08/18 05:33:58;;;;;;;33.30;22.17;;;;;;;22.12;88.71;99926.05;124956;1099;104162;-77
2022/08/18 05:36:50;;;;;;;32.42;21.40;;;;;;;22.15;88.93;99925.11;124519;1099;102262;-76
2022/08/18 05:39:32;;;;;;;34.87;21.70;;;;;;;22.20;88.60;99918.73;126282;1098;102158;-76
2022/08/18 05:42:17;;;;;;;33.97;22.93;;;;;;;22.26;88.66;99925.75;124394;1099;110261;-77
2022/08/18 05:44:57;;;;;;;32.93;21.77;;;;;;;22.31;88.34;99934.58;124799;1099;104281;-76
2022/08/18 05:47:32;;;;;;;32.80;21.83;;;;;;;22.32;88.02;99922.98;124828;1099;104198;-77
2022/08/18 05:50:09;;;;;;;33.07;21.27;;;;;;;22.33;88.59;99923.86;124351;1102;104293;-78
2022/08/18 05:52:53;;;;;;;31.40;20.60;;;;;;;22.34;88.25;99921.14;125683;1099;102665;-77
2022/08/18 05:58:30;;;;;;;32.30;21.10;;;;;;;22.26;88.02;99918.61;124816;1099;103305;-78
2022/08/18 06:01:09;;;;;;;30.43;20.00;;;;;;;22.24;88.21;99936.48;124648;1099;104278;-78
2022/08/18 06:03:48;;;;;;;32.57;20.10;;;;;;;22.24;87.76;99931.13;124299;1099;104265;-78
2022/08/18 06:06:26;;;;;;;31.33;19.33;;;;;;;22.23;87.61;99933.84;124985;1099;104197;-77
2022/08/18 06:09:25;;;;;;;34.97;20.83;;;;;;;22.22;88.17;99932.97;124455;1099;104197;-77
2022/08/18 06:15:18;;;;;;;32.30;20.73;;;;;;;22.16;87.97;99933.09;124842;1102;104163;-77
2022/08/18 06:18:23;;;;;;;31.00;20.00;;;;;;;22.14;88.09;99929.55;124277;1102;104197;-77
2022/08/18 06:21:18;;;;;;;30.07;20.07;;;;;;;22.14;88.12;99937.57;124171;1102;104293;-77
2022/08/18 06:24:06;;;;;;;32.20;20.50;;;;;;;22.15;88.02;99938.47;124978;1102;102346;-78
2022/08/18 06:26:49;;;;;;;28.00;19.53;;;;;;;22.15;87.71;99939.34;124921;1102;104172;-78
2022/08/18 06:29:36;;;;;;;32.63;20.87;;;;;;;22.16;88.25;99940.21;125008;1102;102041;-78
2022/08/18 06:36:07;;;;;;;30.53;19.23;;;;;;;22.23;87.98;99942.72;125643;1102;101809;-78
2022/08/18 06:39:13;;;;;;;29.10;19.27;;;;;;;22.32;87.99;99944.36;124387;1102;104220;-77
2022/08/18 06:42:24;;;;;;;29.83;19.23;;;;;;;22.42;87.87;99943.27;124206;1105;104419;-79
2022/08/18 06:45:44;;;;;;;29.47;19.73;;;;;;;22.59;87.86;99940.22;124251;1105;103000;-77
2022/08/18 06:48:55;;;;;;;32.73;20.10;;;;;;;22.75;87.70;99945.19;125003;1105;104501;-78
2022/08/18 06:51:59;;;;;;;36.33;22.00;;;;;;;22.90;87.97;99942.15;124228;1105;103027;-78
2022/08/18 06:54:48;;;;;;;33.63;21.67;;;;;;;23.06;87.71;99942.69;124205;1105;104255;-77
2022/08/18 06:57:31;;;;;;;30.23;20.37;;;;;;;23.22;87.56;99948.55;124171;1105;104159;-79
2022/08/18 07:00:21;;;;;;;30.87;21.90;;;;;;;23.40;87.13;99943.64;124883;1105;102635;-79
2022/08/18 07:03:04;;;;;;;33.73;22.57;;;;;;;23.49;86.99;99941.59;124263;1105;104191;-79
2022/08/18 07:06:03;;;;;;;32.70;21.67;;;;;;;23.53;86.73;99947.77;124840;1106;102368;-78
2022/08/18 07:08:55;;;;;;;;;;;;;;;;;;;;;
2022/08/18 07:11:38;;;;;;;28.83;20.03;;;;;;;23.66;86.64;99946.50;124861;1102;104399;-79
2022/08/18 07:14:32;;;;;;;31.30;19.87;;;;;;;23.74;86.48;99948.11;124866;1102;104227;-78
2022/08/18 07:17:22;;;;;;;29.10;20.13;;;;;;;23.77;85.87;99956.92;125865;1102;108050;-78
2022/08/18 07:20:19;;;;;;;31.30;21.97;;;;;;;23.81;85.72;99946.99;124957;1102;104166;-79
2022/08/18 07:23:01;;;;;;;33.30;20.80;;;;;;;23.84;85.95;99954.98;124966;1102;104176;-79
2022/08/18 07:25:43;;;;;;;33.40;20.57;;;;;;;23.87;85.44;99952.22;124663;1102;103344;-77
2022/08/18 07:28:31;;;;;;;30.07;19.37;;;;;;;23.88;85.02;99963.83;124050;1102;104772;-78
2022/08/18 07:31:24;;;;;;;26.30;17.43;;;;;;;23.90;84.80;99967.34;124027;1102;102316;-78
2022/08/18 07:34:24;;;;;;;24.12;15.15;;;;;;;23.92;84.10;99962.80;124093;1105;105199;-78
2022/08/18 07:37:23;;;;;;;24.33;14.97;;;;;;;23.95;84.06;99955.58;125026;1102;104217;-79
2022/08/18 07:40:03;;;;;;;25.40;15.97;;;;;;;23.97;83.57;99952.86;124813;1101;104230;-78
2022/08/18 07:42:50;;;;;;;23.90;15.53;;;;;;;23.94;83.48;99959.17;125000;1102;104300;-78
2022/08/18 07:45:37;;;;;;;24.47;15.23;;;;;;;23.96;83.77;99965.36;124963;1102;104169;-79
2022/08/18 07:48:15;;;;;;;23.97;15.87;;;;;;;23.99;82.96;99964.41;124880;1102;104278;-79
2022/08/18 07:51:19;;;;;;;23.37;15.30;;;;;;;24.05;82.53;99966.91;124775;1105;104351;-78
2022/08/18 07:54:08;;;;;;;23.63;14.37;;;;;;;24.14;82.67;99961.29;124678;1105;104350;-77
2022/08/18 07:56:50;;;;;;;26.07;15.03;;;;;;;24.30;82.07;99956.34;124740;1105;104858;-78
2022/08/18 07:59:40;;;;;;;22.60;15.00;;;;;;;24.57;82.51;99960.05;124769;1106;102350;-78
2022/08/18 08:02:36;;;;;;;23.17;14.57;;;;;;;24.79;81.90;99955.80;124838;1105;104163;-78
2022/08/18 08:05:17;;;;;;;24.40;14.73;;;;;;;25.02;81.81;99961.30;124125;1105;104205;-77
2022/08/18 08:08:01;;;;;;;22.83;14.97;;;;;;;25.13;80.40;99958.27;124212;1105;104057;-78
2022/08/18 08:10:45;;;;;;;24.72;15.15;;;;;;;25.19;80.34;99966.12;124049;1105;103393;-78
2022/08/18 08:13:36;;;;;;;24.98;14.80;;;;;;;25.19;79.42;99962.57;124765;1105;102829;-77
2022/08/18 08:16:25;;;;;;;24.87;15.90;;;;;;;25.10;79.24;99963.73;124771;1105;104157;-77
2022/08/18 08:19:13;;;;;;;23.17;15.10;;;;;;;25.09;78.54;99964.69;124764;1106;118952;-78
2022/08/18 08:22:01;;;;;;;22.87;14.77;;;;;;;25.04;78.80;99954.10;124757;1105;104338;-78
2022/08/18 08:24:44;;;;;;;24.20;14.93;;;;;;;25.09;78.46;99957.50;124808;1105;102698;-78
2022/08/18 08:27:46;;;;;;;23.20;15.10;;;;;;;25.22;78.41;99952.59;124938;1102;101818;-78
2022/08/18 08:30:30;;;;;;;22.97;14.17;;;;;;;25.29;77.55;99953.29;124941;1102;102130;-77
2022/08/18 08:33:29;;;;;;;21.30;14.00;;;;;;;25.29;77.65;99958.66;124813;1103;104613;-78
2022/08/18 08:36:17;;;;;;;22.37;14.27;;;;;;;25.35;76.81;99954.91;124825;1102;104294;-77
2022/08/18 08:39:10;;;;;;;22.50;13.63;;;;;;;25.43;77.33;99951.03;124906;1101;104197;-78
2022/08/18 08:41:52;;;;;;;25.20;13.97;;;;;;;25.54;76.57;99953.35;124451;1105;102993;-78
2022/08/18 08:44:52;;;;;;;25.25;13.68;;;;;;;25.69;76.75;99949.23;124833;1105;104331;-78
2022/08/18 08:47:36;;;;;;;25.47;13.83;;;;;;;25.88;76.48;99944.06;124782;1106;103537;-77
2022/08/18 08:50:14;;;;;;;21.10;13.53;;;;;;;26.01;75.95;99953.48;124714;1106;104357;-76
2022/08/18 08:53:01;;;;;;;20.20;13.40;;;;;;;26.08;74.96;99947.87;124049;1105;102820;-76
2022/08/18 08:55:41;;;;;;;21.23;12.67;;;;;;;26.16;74.83;99952.05;124069;1105;104252;-77
2022/08/18 08:58:39;;;;;;;20.13;12.30;;;;;;;26.23;74.25;99946.44;124038;1106;104386;-77
2022/08/18 09:01:20;;;;;;;18.50;11.63;;;;;;;26.39;74.40;99950.27;124027;1105;104633;-78
2022/08/18 09:04:06;;;;;;;19.23;11.53;;;;;;;26.42;73.68;99946.59;124693;1105;104367;-78
2022/08/18 09:07:05;;;;;;;18.30;11.00;;;;;;;26.41;73.56;99950.22;124760;1105;104063;-78
2022/08/18 09:10:06;;;;;;;18.57;11.23;;;;;;;26.39;72.96;99947.58;124573;1105;104120;-78
2022/08/18 09:12:54;;;;;;;18.63;11.70;;;;;;;26.45;73.22;99947.34;124803;1105;102210;-79
2022/08/18 09:18:54;;;;;;;17.77;11.30;;;;;;;26.68;72.89;99937.55;116269;1102;10000914;-78
2022/08/18 09:21:44;;;;;;;19.90;11.87;;;;;;;26.78;71.97;99938.04;124883;1105;104182;-78
2022/08/18 09:28:07;;;;;;;20.07;11.53;;;;;;;27.09;71.55;99945.73;124958;1105;104629;-77
2022/08/18 09:30:52;;;;;;;17.40;11.07;;;;;;;27.21;71.25;99942.52;124109;1105;101953;-78
2022/08/18 09:33:48;;;;;;;19.23;11.37;;;;;;;27.37;71.07;99929.31;124105;1103;103652;-78
2022/08/18 09:36:40;;;;;;;18.37;11.07;;;;;;;27.53;69.61;99940.29;124867;1102;104197;-77
2022/08/18 09:42:39;;;;;;;17.97;11.03;;;;;;;27.66;68.86;99932.56;124049;1105;104371;-78
2022/08/18 09:45:55;;;;;;;18.33;11.13;;;;;;;27.58;68.43;99930.20;124766;1105;104165;-78
2022/08/18 09:48:32;;;;;;;19.53;10.47;;;;;;;27.80;69.01;99932.82;124389;1102;104248;-78
2022/08/18 09:51:36;;;;;;;16.30;10.00;;;;;;;27.88;67.46;99927.09;124169;1105;104194;-78
2022/08/18 09:54:23;;;;;;;18.70;9.97;;;;;;;27.85;66.99;99931.75;124801;1105;104245;-79
2022/08/18 09:57:25;;;;;;;17.17;10.13;;;;;;;27.78;66.58;99931.13;124747;1105;104249;-80
2022/08/18 10:00:22;;;;;;;18.03;10.10;;;;;;;27.75;66.98;99931.27;124841;1102;104246;-80
2022/08/18 10:03:20;;;;;;;15.17;8.93;;;;;;;27.92;66.59;99931.38;124889;1102;104136;-77
2022/08/18 10:06:27;;;;;;;18.57;9.63;;;;;;;28.01;66.19;99918.47;124775;1105;102768;-79
2022/08/18 10:09:21;;;;;;;18.50;10.43;;;;;;;28.04;65.30;99921.03;124801;1105;104233;-77
2022/08/18 10:12:41;;;;;;;19.60;9.80;;;;;;;28.23;65.87;99918.34;124006;1105;104172;-77
2022/08/18 10:15:39;;;;;;;21.23;10.10;;;;;;;28.25;64.85;99925.43;124024;1105;104451;-78
2022/08/18 10:18:26;;;;;;;19.87;10.60;;;;;;;28.12;65.17;99916.15;124000;1105;102582;-78
2022/08/18 10:21:09;;;;;;;15.00;9.50;;;;;;;28.13;63.89;99920.61;124062;1106;104248;-79
2022/08/18 10:24:15;;;;;;;15.88;9.10;;;;;;;28.24;63.61;99917.41;124999;1105;102873;-79
2022/08/18 10:27:29;;;;;;;14.27;8.83;;;;;;;28.31;63.70;99911.66;124794;1106;102878;-79
2022/08/18 10:30:02;;;;;;;14.87;8.40;;;;;;;28.39;62.99;99910.40;124932;1105;101921;-79
2022/08/18 10:32:50;;;;;;;17.50;9.67;;;;;;;28.37;62.82;99905.08;124599;1105;104255;-79
2022/08/18 10:35:59;;;;;;;14.90;8.53;;;;;;;28.45;63.28;99897.48;124111;1105;102308;-78
2022/08/18 10:38:52;;;;;;;15.40;8.00;;;;;;;28.60;62.44;99895.91;125365;1105;102460;-78
2022/08/18 10:41:33;;;;;;;15.13;8.97;;;;;;;28.51;61.94;99894.48;124694;1105;109491;-79
2022/08/18 10:44:26;;;;;;;17.33;9.07;;;;;;;28.45;61.88;99894.78;124058;1105;104195;-80
2022/08/18 10:47:01;;;;;;;15.70;8.60;;;;;;;28.29;60.97;99900.04;124921;1105;104415;-78
2022/08/18 10:49:38;;;;;;;15.73;9.57;;;;;;;28.23;61.42;99894.94;124922;1102;102158;-79
2022/08/18 10:52:50;;;;;;;16.80;9.10;;;;;;;28.32;61.69;99899.89;124976;1104;102145;-78
2022/08/18 10:55:51;;;;;;;18.03;8.70;;;;;;;28.46;59.84;99893.84;124491;1106;102877;-79
2022/08/18 10:58:44;;;;;;;16.40;9.20;;;;;;;28.66;60.69;99898.31;123983;1105;104274;-79
2022/08/18 11:01:40;;;;;;;16.33;8.67;;;;;;;28.86;60.55;99894.63;124626;1105;104201;-78
2022/08/18 11:04:28;;;;;;;16.30;8.60;;;;;;;29.07;60.33;99896.33;124119;1106;104098;-77
2022/08/18 11:07:13;;;;;;;14.07;8.40;;;;;;;29.30;59.54;99898.75;124269;1102;103056;-78
2022/08/18 11:09:51;;;;;;;15.43;8.40;;;;;;;29.16;59.05;99901.27;124796;1102;102749;-79
2022/08/18 11:12:58;;;;;;;17.60;8.87;;;;;;;28.96;59.17;99904.97;124761;1105;104159;-79
2022/08/18 11:16:01;;;;;;;16.70;8.80;;;;;;;28.81;58.99;99899.39;124738;1105;104184;-78
2022/08/18 11:18:44;;;;;;;18.43;8.87;;;;;;;28.84;58.29;99901.94;124756;1105;103318;-78
2022/08/18 11:21:46;;;;;;;16.57;9.23;;;;;;;28.91;58.08;99882.73;124068;1102;104175;-79
2022/08/18 11:24:31;;;;;;;17.43;9.43;;;;;;;29.00;58.36;99890.34;124000;1105;104338;-78
2022/08/18 11:27:07;;;;;;;17.37;9.00;;;;;;;28.94;57.45;99894.24;124012;1105;104660;-78
2022/08/18 11:29:46;;;;;;;16.13;10.03;;;;;;;28.98;57.16;99893.12;124132;1102;104227;-79
2022/08/18 11:32:33;;;;;;;14.60;8.67;;;;;;;29.17;57.27;99897.59;124772;1105;104267;-78
2022/08/18 11:35:15;;;;;;;15.43;9.33;;;;;;;29.30;56.10;99901.45;123862;1105;103516;-77
2022/08/18 11:37:55;;;;;;;22.13;9.50;;;;;;;29.28;56.54;99903.38;124734;1105;104220;-77
2022/08/18 11:40:35;;;;;;;21.17;9.60;;;;;;;29.17;56.55;99913.80;124765;1105;102178;-78
2022/08/18 11:43:14;;;;;;;15.90;8.23;;;;;;;28.93;56.14;99916.79;124736;1105;110071;-77
2022/08/18 11:46:12;;;;;;;15.40;8.80;;;;;;;28.56;56.43;99907.76;124844;1105;104271;-77
2022/08/18 11:48:58;;;;;;;13.33;7.37;;;;;;;28.13;56.47;99907.98;124113;1102;102575;-75
2022/08/18 11:51:53;;;;;;;21.03;9.13;;;;;;;27.85;56.80;99894.01;125407;1102;101966;-76
2022/08/18 11:54:46;;;;;;;19.17;9.67;;;;;;;27.65;57.31;99893.08;124038;1105;104316;-76
2022/08/18 11:57:52;;;;;;;15.80;9.10;;;;;;;27.55;57.69;99891.72;124051;1102;101948;-77
2022/08/18 12:00:57;;;;;;;17.00;9.05;;;;;;;27.70;57.58;99900.95;125097;1105;104230;-79
2022/08/18 12:03:42;;;;;;;16.33;9.73;;;;;;;27.93;57.62;99899.91;124854;1105;119547;-78
2022/08/18 12:06:26;;;;;;;16.50;9.53;;;;;;;28.14;57.44;99907.05;124940;1100;104418;-78
2022/08/18 12:09:08;;;;;;;16.53;9.30;;;;;;;28.40;57.63;99899.53;126094;1098;104175;-79
2022/08/18 12:12:06;;;;;;;;;;;;;;;;;;;;;
2022/08/18 12:14:57;;;;;;;16.97;9.17;;;;;;;28.88;56.94;99893.69;125111;1099;104227;-80
2022/08/18 12:17:32;;;;;;;16.50;9.23;;;;;;;29.18;56.84;99883.14;125317;1099;104303;-78
2022/08/18 12:20:08;;;;;;;14.40;9.43;;;;;;;29.40;56.30;99897.33;124823;1099;102434;-79
2022/08/18 12:22:48;;;;;;;16.07;9.10;;;;;;;29.40;56.25;99891.93;125371;1099;104297;-78
2022/08/18 12:25:31;;;;;;;18.63;8.60;;;;;;;29.49;56.30;99881.58;125365;1099;102236;-79
2022/08/18 12:28:21;;;;;;;15.30;9.23;;;;;;;29.66;55.65;99889.66;125046;1102;104249;-79
2022/08/18 12:31:01;;;;;;;16.00;9.10;;;;;;;29.80;56.10;99882.69;125053;1102;104728;-81
2022/08/18 12:36:35;;;;;;;19.50;9.30;;;;;;;29.76;55.08;99874.70;125069;1102;102839;-79
2022/08/18 12:39:31;;;;;;;;;;;;;;;;;;;;;
2022/08/18 12:42:14;;;;;;;15.87;8.83;;;;;;;29.59;54.73;99855.79;125107;1102;104265;-79
2022/08/18 12:44:50;;;;;;;17.07;8.93;;;;;;;29.49;54.05;99843.74;125004;1102;118920;-78
2022/08/18 12:47:47;;;;;;;17.13;9.57;;;;;;;29.38;54.17;99837.06;125015;1102;104322;-79
2022/08/18 12:50:42;;;;;;;17.20;9.77;;;;;;;29.42;54.30;99837.80;124995;1102;104200;-78
2022/08/18 12:53:48;;;;;;;17.70;9.77;;;;;;;29.45;53.63;99839.45;125755;1099;102259;-78